»·PEaware :: AAY1092 KIFP-KLAS

AAY1092 :: KIFP-KLAS

FLIGHT INFORMATION

Flight Status: Arrived
Operator:
Allegiant Air
More flights by this operator :: More flights under this callsign
Pilot: Ryan B. (8502)
Aircraft: MCDONNELL-DOUGLAS MD-88
(MD88)
More flights by this aircraft type
Origin: KIFP Laughlin/Bullhead Intl
United States
Destination: KLAS McCarran Intl
United States
More flights between these airports :: More routes between these airports
Route: +EED PGS KADDY2
File this flight plan on PilotEdge
Remarks:
Altitude:
(Current/Filed)
19,000ft
Speed:
(Current/Filed)
450kts
Departed: 16-Aug-17 04:08 PM
Arrived: 16-Aug-17 04:36 PM
Distance/Time
Traveled:
63nm/0:28
Distance/Time
To Go:
Arrived

Flight Plot

Page will automatically refresh every two minutes.

Flight plan parsing failed; only flown route is shown


Map Options




Map Legend


Flown Route
Filed Route
Departure Airport
Arrival Airport
Navaid (VOR, NDB)
Fix

Horizontal Profiles

Position Reports

Time Latitude Longitude Heading Altitude Ground
Speed
16-Aug-17 15:52 35.165150 -114.556330 85 665ft 0kts
16-Aug-17 15:53 35.165150 -114.556330 85 665ft 0kts
16-Aug-17 15:54 35.165150 -114.556330 85 665ft 0kts
16-Aug-17 15:55 35.165150 -114.556330 85 665ft 0kts
16-Aug-17 15:56 35.165150 -114.556330 85 665ft 0kts
16-Aug-17 15:57 35.165150 -114.556330 85 665ft 0kts
16-Aug-17 15:58 35.165150 -114.556330 85 665ft 0kts
16-Aug-17 15:59 35.165150 -114.556330 85 665ft 0kts
16-Aug-17 16:00 35.165150 -114.556330 85 665ft 0kts
16-Aug-17 16:01 35.165150 -114.556330 85 665ft 0kts
16-Aug-17 16:02 35.165150 -114.556330 85 665ft 0kts
16-Aug-17 16:03 35.165150 -114.556330 85 665ft 0kts
16-Aug-17 16:04 35.165140 -114.556445 75 664ft 2kts
16-Aug-17 16:05 35.164961 -114.556746 32 662ft 2kts
16-Aug-17 16:06 35.164532 -114.556822 354 663ft 0kts
16-Aug-17 16:07 35.164532 -114.556822 354 663ft 0kts
16-Aug-17 16:08 35.165075 -114.557374 274 657ft 10kts
16-Aug-17 16:09 35.166163 -114.559026 304 640ft 0kts
16-Aug-17 16:10 35.166164 -114.559028 304 640ft 0kts
16-Aug-17 16:11 35.166048 -114.560140 185 630ft 4kts
16-Aug-17 16:12 35.149077 -114.558914 177 679ft 141kts
16-Aug-17 16:13 35.106288 -114.557219 180 2054ft 157kts
16-Aug-17 16:14 35.061411 -114.553228 175 3592ft 165kts
16-Aug-17 16:15 35.013863 -114.546410 173 5165ft 178kts
16-Aug-17 16:16 34.965197 -114.532658 167 6940ft 188kts
16-Aug-17 16:17 34.912175 -114.512759 141 8928ft 215kts
16-Aug-17 16:18 34.914999 -114.444429 51 10684ft 244kts
16-Aug-17 16:19 34.966218 -114.380571 47 11861ft 285kts
16-Aug-17 16:20 35.025251 -114.305633 47 13023ft 334kts
16-Aug-17 16:21 35.079517 -114.236449 47 13935ft 376kts
16-Aug-17 16:22 35.150708 -114.145753 48 16250ft 389kts
16-Aug-17 16:23 35.237796 -114.067714 7 18432ft 412kts
16-Aug-17 16:24 35.340191 -114.120846 325 19701ft 417kts
16-Aug-17 16:25 35.440480 -114.188422 330 17771ft 411kts
16-Aug-17 16:26 35.540334 -114.253020 331 15888ft 402kts
16-Aug-17 16:27 35.637625 -114.315882 331 14047ft 392kts
16-Aug-17 16:28 35.732640 -114.377252 332 12221ft 382kts
16-Aug-17 16:29 35.822981 -114.427875 336 12011ft 331kts
16-Aug-17 16:30 35.897579 -114.477398 307 12040ft 284kts
16-Aug-17 16:31 35.944253 -114.565252 284 12063ft 311kts
16-Aug-17 16:32 35.964998 -114.663217 283 11170ft 305kts
16-Aug-17 16:33 35.986391 -114.764350 283 9790ft 302kts
16-Aug-17 16:34 36.007532 -114.863646 283 8521ft 296kts
16-Aug-17 16:35 36.028402 -114.960478 283 7281ft 291kts
16-Aug-17 16:36 36.025754 -115.051180 261 6339ft 270kts
16-Aug-17 16:37 36.017021 -115.138257 260 5388ft 234kts
16-Aug-17 16:38 36.025374 -115.197281 343 4238ft 180kts
16-Aug-17 16:39 36.068229 -115.174538 28 2440ft 165kts
16-Aug-17 16:40 36.095278 -115.158126 61 2098ft 13kts
16-Aug-17 16:41 36.095096 -115.155026 119 2089ft 14kts
16-Aug-17 16:42 36.092771 -115.154648 204 2092ft 8kts

Navigation Log

Ident Type
Flight plan parsing failed, navigation log unavailable